sensor_id;sensor_type;location;lat;lon;timestamp;P1;durP1;ratioP1;P2;durP2;ratioP2
65039;SDS011;51606;45.000;38.612;2023-04-10T04:29:47;2.67;;;2.15;;
65039;SDS011;51606;45.000;38.612;2023-04-10T04:32:37;6.50;;;2.03;;
65039;SDS011;51606;45.000;38.612;2023-04-10T04:35:24;3.92;;;2.10;;
65039;SDS011;51606;45.000;38.612;2023-04-10T04:38:19;4.45;;;1.88;;
65039;SDS011;51606;45.000;38.612;2023-04-10T04:41:04;4.05;;;2.25;;
65039;SDS011;51606;45.000;38.612;2023-04-10T04:43:57;4.50;;;2.03;;
65039;SDS011;51606;45.000;38.612;2023-04-10T04:46:35;3.28;;;1.92;;
65039;SDS011;51606;45.000;38.612;2023-04-10T04:49:30;2.83;;;2.17;;
65039;SDS011;51606;45.000;38.612;2023-04-10T04:55:04;3.90;;;2.10;;
65039;SDS011;51606;45.000;38.612;2023-04-10T04:57:53;4.80;;;2.75;;
65039;SDS011;51606;45.000;38.612;2023-04-10T05:00:30;5.95;;;2.28;;
65039;SDS011;51606;45.000;38.612;2023-04-10T05:03:17;4.28;;;3.00;;
65039;SDS011;51606;45.000;38.612;2023-04-10T05:06:03;3.75;;;2.65;;
65039;SDS011;51606;45.000;38.612;2023-04-10T05:09:03;5.25;;;3.13;;
65039;SDS011;51606;45.000;38.612;2023-04-10T05:11:45;4.50;;;3.15;;
65039;SDS011;51606;45.000;38.612;2023-04-10T05:14:29;4.95;;;2.50;;
65039;SDS011;51606;45.000;38.612;2023-04-10T05:17:07;5.50;;;3.08;;
65039;SDS011;51606;45.000;38.612;2023-04-10T05:19:41;4.53;;;2.75;;
65039;SDS011;51606;45.000;38.612;2023-04-10T05:22:19;4.97;;;3.53;;
65039;SDS011;51606;45.000;38.612;2023-04-10T05:25:06;5.80;;;3.90;;
65039;SDS011;51606;45.000;38.612;2023-04-10T05:27:56;5.32;;;3.70;;
65039;SDS011;51606;45.000;38.612;2023-04-10T05:30:46;5.35;;;3.50;;
65039;SDS011;51606;45.000;38.612;2023-04-10T05:33:31;6.50;;;3.42;;
65039;SDS011;51606;45.000;38.612;2023-04-10T05:36:20;7.10;;;4.15;;
65039;SDS011;51606;45.000;38.612;2023-04-10T05:39:00;6.03;;;3.38;;
65039;SDS011;51606;45.000;38.612;2023-04-10T05:41:33;5.90;;;3.72;;
65039;SDS011;51606;45.000;38.612;2023-04-10T05:44:34;5.28;;;4.03;;
65039;SDS011;51606;45.000;38.612;2023-04-10T05:47:15;7.20;;;2.97;;
65039;SDS011;51606;45.000;38.612;2023-04-10T05:49:53;5.05;;;3.08;;
65039;SDS011;51606;45.000;38.612;2023-04-10T05:52:39;6.82;;;2.92;;
65039;SDS011;51606;45.000;38.612;2023-04-10T05:55:20;6.22;;;3.83;;
65039;SDS011;51606;45.000;38.612;2023-04-10T05:57:54;6.47;;;3.90;;
65039;SDS011;51606;45.000;38.612;2023-04-10T06:00:29;7.30;;;3.85;;
65039;SDS011;51606;45.000;38.612;2023-04-10T06:03:22;8.05;;;3.70;;
65039;SDS011;51606;45.000;38.612;2023-04-10T06:05:56;7.20;;;3.30;;
65039;SDS011;51606;45.000;38.612;2023-04-10T06:08:23;4.78;;;2.95;;
65039;SDS011;51606;45.000;38.612;2023-04-10T06:10:50;9.35;;;3.97;;
65039;SDS011;51606;45.000;38.612;2023-04-10T06:13:17;12.25;;;3.53;;
65039;SDS011;51606;45.000;38.612;2023-04-10T06:15:43;9.00;;;4.10;;
65039;SDS011;51606;45.000;38.612;2023-04-10T06:18:10;7.18;;;3.65;;
65039;SDS011;51606;45.000;38.612;2023-04-10T06:20:37;12.57;;;3.63;;
65039;SDS011;51606;45.000;38.612;2023-04-10T06:23:03;4.20;;;2.85;;
65039;SDS011;51606;45.000;38.612;2023-04-10T06:25:30;16.55;;;3.58;;
65039;SDS011;51606;45.000;38.612;2023-04-10T06:27:58;6.13;;;3.65;;
65039;SDS011;51606;45.000;38.612;2023-04-10T06:30:25;7.07;;;3.70;;
65039;SDS011;51606;45.000;38.612;2023-04-10T06:32:51;4.97;;;3.22;;
65039;SDS011;51606;45.000;38.612;2023-04-10T06:35:19;9.20;;;3.65;;
65039;SDS011;51606;45.000;38.612;2023-04-10T06:37:46;6.68;;;3.47;;
65039;SDS011;51606;45.000;38.612;2023-04-10T06:40:14;5.07;;;3.30;;
65039;SDS011;51606;45.000;38.612;2023-04-10T06:42:41;5.88;;;3.75;;
65039;SDS011;51606;45.000;38.612;2023-04-10T06:45:31;5.88;;;3.35;;
65039;SDS011;51606;45.000;38.612;2023-04-10T06:47:58;9.50;;;4.15;;
65039;SDS011;51606;45.000;38.612;2023-04-10T06:50:24;6.28;;;3.55;;
65039;SDS011;51606;45.000;38.612;2023-04-10T06:52:50;5.18;;;3.42;;
65039;SDS011;51606;45.000;38.612;2023-04-10T06:55:20;6.55;;;3.25;;
65039;SDS011;51606;45.000;38.612;2023-04-10T06:57:46;7.65;;;3.78;;
65039;SDS011;51606;45.000;38.612;2023-04-10T07:00:13;7.32;;;4.05;;
65039;SDS011;51606;45.000;38.612;2023-04-10T07:02:40;7.07;;;4.05;;
65039;SDS011;51606;45.000;38.612;2023-04-10T07:05:06;6.55;;;3.30;;
65039;SDS011;51606;45.000;38.612;2023-04-10T07:07:33;5.30;;;3.15;;
65039;SDS011;51606;45.000;38.612;2023-04-10T07:10:00;7.93;;;3.65;;
65039;SDS011;51606;45.000;38.612;2023-04-10T07:12:26;8.30;;;3.53;;
65039;SDS011;51606;45.000;38.612;2023-04-10T07:14:52;7.68;;;3.17;;
65039;SDS011;51606;45.000;38.612;2023-04-10T07:17:19;6.18;;;3.00;;
65039;SDS011;51606;45.000;38.612;2023-04-10T07:19:46;7.03;;;3.35;;
65039;SDS011;51606;45.000;38.612;2023-04-10T07:22:12;6.80;;;3.13;;
65039;SDS011;51606;45.000;38.612;2023-04-10T07:24:40;4.28;;;2.80;;
65039;SDS011;51606;45.000;38.612;2023-04-10T07:27:06;4.50;;;3.17;;
65039;SDS011;51606;45.000;38.612;2023-04-10T07:29:33;4.63;;;3.00;;
65039;SDS011;51606;45.000;38.612;2023-04-10T07:31:59;14.05;;;3.53;;
65039;SDS011;51606;45.000;38.612;2023-04-10T07:34:26;6.47;;;4.20;;
65039;SDS011;51606;45.000;38.612;2023-04-10T07:36:52;4.38;;;2.60;;
65039;SDS011;51606;45.000;38.612;2023-04-10T07:39:19;6.28;;;3.08;;
65039;SDS011;51606;45.000;38.612;2023-04-10T07:41:45;5.97;;;2.85;;
65039;SDS011;51606;45.000;38.612;2023-04-10T07:44:11;5.28;;;3.17;;
65039;SDS011;51606;45.000;38.612;2023-04-10T07:46:39;4.55;;;2.85;;
65039;SDS011;51606;45.000;38.612;2023-04-10T07:49:06;3.47;;;2.17;;
65039;SDS011;51606;45.000;38.612;2023-04-10T07:51:32;6.07;;;3.33;;
65039;SDS011;51606;45.000;38.612;2023-04-10T07:53:59;4.63;;;2.90;;
65039;SDS011;51606;45.000;38.612;2023-04-10T07:56:25;5.88;;;2.97;;
65039;SDS011;51606;45.000;38.612;2023-04-10T07:58:57;4.68;;;2.47;;
65039;SDS011;51606;45.000;38.612;2023-04-10T08:01:25;4.68;;;2.47;;
65039;SDS011;51606;45.000;38.612;2023-04-10T08:03:52;4.43;;;2.72;;
65039;SDS011;51606;45.000;38.612;2023-04-10T08:06:19;4.82;;;2.75;;
65039;SDS011;51606;45.000;38.612;2023-04-10T08:08:46;3.47;;;2.28;;
65039;SDS011;51606;45.000;38.612;2023-04-10T08:13:50;8.02;;;2.75;;
65039;SDS011;51606;45.000;38.612;2023-04-10T08:16:23;5.82;;;2.60;;
65039;SDS011;51606;45.000;38.612;2023-04-10T08:18:53;5.28;;;2.97;;
65039;SDS011;51606;45.000;38.612;2023-04-10T08:21:24;4.90;;;2.42;;
65039;SDS011;51606;45.000;38.612;2023-04-10T08:23:52;4.05;;;3.03;;
65039;SDS011;51606;45.000;38.612;2023-04-10T08:26:19;7.97;;;3.17;;
65039;SDS011;51606;45.000;38.612;2023-04-10T08:28:50;2.55;;;2.10;;
65039;SDS011;51606;45.000;38.612;2023-04-10T08:31:17;7.90;;;3.30;;
65039;SDS011;51606;45.000;38.612;2023-04-10T08:33:45;10.73;;;2.85;;
65039;SDS011;51606;45.000;38.612;2023-04-10T08:36:12;7.22;;;2.90;;
65039;SDS011;51606;45.000;38.612;2023-04-10T08:38:42;5.80;;;2.95;;
65039;SDS011;51606;45.000;38.612;2023-04-10T08:41:13;6.43;;;3.03;;
65039;SDS011;51606;45.000;38.612;2023-04-10T08:43:40;4.70;;;3.25;;
65039;SDS011;51606;45.000;38.612;2023-04-10T08:46:08;3.95;;;2.58;;
65039;SDS011;51606;45.000;38.612;2023-04-10T08:48:34;8.85;;;2.90;;
65039;SDS011;51606;45.000;38.612;2023-04-10T08:51:08;4.13;;;2.75;;
65039;SDS011;51606;45.000;38.612;2023-04-10T08:53:44;4.75;;;2.70;;
65039;SDS011;51606;45.000;38.612;2023-04-10T08:56:13;4.88;;;2.65;;
65039;SDS011;51606;45.000;38.612;2023-04-10T08:58:42;4.63;;;2.92;;
65039;SDS011;51606;45.000;38.612;2023-04-10T09:01:09;3.13;;;2.38;;
65039;SDS011;51606;45.000;38.612;2023-04-10T09:03:36;13.52;;;3.00;;
65039;SDS011;51606;45.000;38.612;2023-04-10T09:06:03;5.20;;;2.58;;
65039;SDS011;51606;45.000;38.612;2023-04-10T09:08:30;3.75;;;2.72;;
65039;SDS011;51606;45.000;38.612;2023-04-10T09:10:57;5.47;;;2.33;;
65039;SDS011;51606;45.000;38.612;2023-04-10T09:16:06;9.63;;;2.50;;
65039;SDS011;51606;45.000;38.612;2023-04-10T09:18:43;4.05;;;2.15;;
65039;SDS011;51606;45.000;38.612;2023-04-10T09:21:10;5.07;;;2.65;;
65039;SDS011;51606;45.000;38.612;2023-04-10T09:23:40;5.70;;;2.70;;
65039;SDS011;51606;45.000;38.612;2023-04-10T09:26:26;3.50;;;2.42;;
65039;SDS011;51606;45.000;38.612;2023-04-10T09:28:55;4.25;;;2.22;;
65039;SDS011;51606;45.000;38.612;2023-04-10T09:31:29;23.10;;;3.28;;
65039;SDS011;51606;45.000;38.612;2023-04-10T09:34:06;4.82;;;2.35;;
65039;SDS011;51606;45.000;38.612;2023-04-10T09:36:42;5.03;;;2.20;;
65039;SDS011;51606;45.000;38.612;2023-04-10T09:39:29;8.80;;;2.88;;
65039;SDS011;51606;45.000;38.612;2023-04-10T09:42:03;5.07;;;2.60;;
65039;SDS011;51606;45.000;38.612;2023-04-10T09:44:30;3.80;;;2.22;;
65039;SDS011;51606;45.000;38.612;2023-04-10T09:46:58;4.03;;;2.45;;
65039;SDS011;51606;45.000;38.612;2023-04-10T09:49:45;4.07;;;2.17;;
65039;SDS011;51606;45.000;38.612;2023-04-10T09:52:20;3.13;;;2.22;;
65039;SDS011;51606;45.000;38.612;2023-04-10T09:54:49;5.65;;;3.15;;
65039;SDS011;51606;45.000;38.612;2023-04-10T09:57:17;4.25;;;2.88;;
65039;SDS011;51606;45.000;38.612;2023-04-10T09:59:48;4.47;;;2.17;;
65039;SDS011;51606;45.000;38.612;2023-04-10T10:02:17;11.00;;;3.40;;
65039;SDS011;51606;45.000;38.612;2023-04-10T10:04:44;8.77;;;2.90;;
65039;SDS011;51606;45.000;38.612;2023-04-10T10:07:13;8.63;;;3.50;;
65039;SDS011;51606;45.000;38.612;2023-04-10T10:09:44;4.13;;;2.38;;
65039;SDS011;51606;45.000;38.612;2023-04-10T10:12:11;4.35;;;3.05;;
65039;SDS011;51606;45.000;38.612;2023-04-10T10:14:49;5.15;;;3.17;;
65039;SDS011;51606;45.000;38.612;2023-04-10T10:17:23;5.82;;;2.90;;
65039;SDS011;51606;45.000;38.612;2023-04-10T10:20:04;5.03;;;2.88;;
65039;SDS011;51606;45.000;38.612;2023-04-10T10:22:34;4.05;;;2.83;;
65039;SDS011;51606;45.000;38.612;2023-04-10T10:25:02;5.93;;;3.20;;
65039;SDS011;51606;45.000;38.612;2023-04-10T10:27:32;4.72;;;3.25;;
65039;SDS011;51606;45.000;38.612;2023-04-10T10:30:02;5.60;;;3.30;;
65039;SDS011;51606;45.000;38.612;2023-04-10T10:32:28;7.35;;;3.00;;
65039;SDS011;51606;45.000;38.612;2023-04-10T10:34:55;6.88;;;3.22;;
65039;SDS011;51606;45.000;38.612;2023-04-10T10:37:22;6.75;;;3.60;;
65039;SDS011;51606;45.000;38.612;2023-04-10T10:42:29;6.85;;;3.30;;
65039;SDS011;51606;45.000;38.612;2023-04-10T10:45:17;7.53;;;3.83;;
65039;SDS011;51606;45.000;38.612;2023-04-10T10:47:52;4.70;;;2.72;;
65039;SDS011;51606;45.000;38.612;2023-04-10T10:50:19;13.60;;;5.32;;
65039;SDS011;51606;45.000;38.612;2023-04-10T10:52:48;12.55;;;3.67;;
65039;SDS011;51606;45.000;38.612;2023-04-10T10:57:51;6.55;;;2.92;;
65039;SDS011;51606;45.000;38.612;2023-04-10T11:00:18;4.28;;;2.80;;
65039;SDS011;51606;45.000;38.612;2023-04-10T11:05:50;15.80;;;3.25;;
65039;SDS011;51606;45.000;38.612;2023-04-10T11:11:09;3.83;;;2.67;;
65039;SDS011;51606;45.000;38.612;2023-04-10T11:13:38;6.13;;;3.33;;
65039;SDS011;51606;45.000;38.612;2023-04-10T11:16:06;11.57;;;3.75;;
65039;SDS011;51606;45.000;38.612;2023-04-10T11:24:04;6.75;;;3.65;;
65039;SDS011;51606;45.000;38.612;2023-04-10T11:31:46;5.90;;;3.90;;
65039;SDS011;51606;45.000;38.612;2023-04-10T11:34:20;5.07;;;3.20;;
65039;SDS011;51606;45.000;38.612;2023-04-10T11:36:46;6.75;;;3.47;;
65039;SDS011;51606;45.000;38.612;2023-04-10T11:39:14;7.53;;;3.28;;
65039;SDS011;51606;45.000;38.612;2023-04-10T11:41:44;8.15;;;4.35;;
65039;SDS011;51606;45.000;38.612;2023-04-10T11:44:15;5.40;;;3.22;;
65039;SDS011;51606;45.000;38.612;2023-04-10T11:46:45;9.32;;;4.15;;
65039;SDS011;51606;45.000;38.612;2023-04-10T11:49:22;5.43;;;3.35;;
65039;SDS011;51606;45.000;38.612;2023-04-10T11:51:51;5.53;;;3.30;;
65039;SDS011;51606;45.000;38.612;2023-04-10T11:54:24;5.10;;;3.00;;
65039;SDS011;51606;45.000;38.612;2023-04-10T11:59:29;11.10;;;3.33;;
65039;SDS011;51606;45.000;38.612;2023-04-10T12:02:04;5.25;;;3.30;;
65039;SDS011;51606;45.000;38.612;2023-04-10T12:04:41;6.43;;;3.80;;
65039;SDS011;51606;45.000;38.612;2023-04-10T12:07:08;6.15;;;2.67;;
65039;SDS011;51606;45.000;38.612;2023-04-10T12:09:35;6.28;;;2.83;;
65039;SDS011;51606;45.000;38.612;2023-04-10T12:12:03;5.93;;;2.28;;
65039;SDS011;51606;45.000;38.612;2023-04-10T12:14:32;2.45;;;1.85;;
65039;SDS011;51606;45.000;38.612;2023-04-10T12:17:03;1.88;;;1.30;;
65039;SDS011;51606;45.000;38.612;2023-04-10T12:19:31;3.72;;;1.73;;
65039;SDS011;51606;45.000;38.612;2023-04-10T12:21:59;2.45;;;1.35;;
65039;SDS011;51606;45.000;38.612;2023-04-10T12:24:44;3.88;;;1.60;;
65039;SDS011;51606;45.000;38.612;2023-04-10T12:27:16;2.17;;;1.40;;
65039;SDS011;51606;45.000;38.612;2023-04-10T12:29:54;1.50;;;1.23;;
65039;SDS011;51606;45.000;38.612;2023-04-10T12:32:22;5.88;;;1.33;;
65039;SDS011;51606;45.000;38.612;2023-04-10T12:34:50;2.08;;;1.42;;
65039;SDS011;51606;45.000;38.612;2023-04-10T12:37:17;2.72;;;1.88;;
65039;SDS011;51606;45.000;38.612;2023-04-10T12:39:44;2.53;;;1.10;;
65039;SDS011;51606;45.000;38.612;2023-04-10T12:42:15;2.20;;;1.52;;
65039;SDS011;51606;45.000;38.612;2023-04-10T12:44:53;13.35;;;1.65;;
65039;SDS011;51606;45.000;38.612;2023-04-10T12:47:24;1.52;;;1.20;;
65039;SDS011;51606;45.000;38.612;2023-04-10T12:52:31;1.27;;;0.90;;
65039;SDS011;51606;45.000;38.612;2023-04-10T12:55:14;1.05;;;0.95;;
65039;SDS011;51606;45.000;38.612;2023-04-10T12:57:42;1.65;;;0.95;;
65039;SDS011;51606;45.000;38.612;2023-04-10T13:00:11;2.35;;;1.00;;
65039;SDS011;51606;45.000;38.612;2023-04-10T13:02:39;9.80;;;1.30;;
65039;SDS011;51606;45.000;38.612;2023-04-10T13:05:06;6.75;;;1.73;;
65039;SDS011;51606;45.000;38.612;2023-04-10T13:07:34;2.83;;;1.20;;
65039;SDS011;51606;45.000;38.612;2023-04-10T13:10:03;2.53;;;1.38;;
65039;SDS011;51606;45.000;38.612;2023-04-10T13:12:31;1.23;;;0.82;;
65039;SDS011;51606;45.000;38.612;2023-04-10T13:15:01;2.88;;;1.23;;
65039;SDS011;51606;45.000;38.612;2023-04-10T13:17:28;6.78;;;1.27;;
65039;SDS011;51606;45.000;38.612;2023-04-10T13:19:55;2.65;;;1.33;;
65039;SDS011;51606;45.000;38.612;2023-04-10T13:22:21;4.70;;;1.60;;
65039;SDS011;51606;45.000;38.612;2023-04-10T13:24:47;3.67;;;1.52;;
65039;SDS011;51606;45.000;38.612;2023-04-10T13:27:14;2.30;;;1.20;;
65039;SDS011;51606;45.000;38.612;2023-04-10T13:29:41;4.28;;;1.30;;
65039;SDS011;51606;45.000;38.612;2023-04-10T13:32:08;2.88;;;1.30;;
65039;SDS011;51606;45.000;38.612;2023-04-10T13:34:35;2.70;;;1.38;;
65039;SDS011;51606;45.000;38.612;2023-04-10T13:37:01;1.60;;;1.00;;
65039;SDS011;51606;45.000;38.612;2023-04-10T13:39:28;3.92;;;1.20;;
65039;SDS011;51606;45.000;38.612;2023-04-10T13:41:56;1.40;;;1.00;;
65039;SDS011;51606;45.000;38.612;2023-04-10T13:44:23;3.25;;;1.42;;
65039;SDS011;51606;45.000;38.612;2023-04-10T13:46:50;2.35;;;1.20;;
65039;SDS011;51606;45.000;38.612;2023-04-10T13:49:16;1.85;;;1.33;;
65039;SDS011;51606;45.000;38.612;2023-04-10T13:51:44;1.65;;;1.20;;
65039;SDS011;51606;45.000;38.612;2023-04-10T13:54:11;3.42;;;1.33;;
65039;SDS011;51606;45.000;38.612;2023-04-10T13:56:38;1.38;;;1.10;;
65039;SDS011;51606;45.000;38.612;2023-04-10T13:59:05;1.90;;;1.50;;
65039;SDS011;51606;45.000;38.612;2023-04-10T14:01:32;2.17;;;0.95;;
65039;SDS011;51606;45.000;38.612;2023-04-10T14:03:58;1.92;;;1.17;;
65039;SDS011;51606;45.000;38.612;2023-04-10T14:06:25;2.83;;;1.10;;
65039;SDS011;51606;45.000;38.612;2023-04-10T14:08:51;4.05;;;1.20;;
65039;SDS011;51606;45.000;38.612;2023-04-10T14:11:18;1.67;;;1.20;;
65039;SDS011;51606;45.000;38.612;2023-04-10T14:13:45;2.90;;;1.60;;
65039;SDS011;51606;45.000;38.612;2023-04-10T14:16:11;2.40;;;1.38;;
65039;SDS011;51606;45.000;38.612;2023-04-10T14:18:38;1.92;;;1.17;;
65039;SDS011;51606;45.000;38.612;2023-04-10T14:21:05;2.08;;;1.05;;
65039;SDS011;51606;45.000;38.612;2023-04-10T14:23:31;2.05;;;1.38;;
65039;SDS011;51606;45.000;38.612;2023-04-10T14:25:58;17.55;;;1.60;;
65039;SDS011;51606;45.000;38.612;2023-04-10T14:28:24;1.67;;;1.10;;
65039;SDS011;51606;45.000;38.612;2023-04-10T14:30:51;1.73;;;1.30;;
65039;SDS011;51606;45.000;38.612;2023-04-10T14:33:18;5.35;;;1.40;;
65039;SDS011;51606;45.000;38.612;2023-04-10T14:35:45;2.13;;;1.40;;
65039;SDS011;51606;45.000;38.612;2023-04-10T14:38:12;3.20;;;1.40;;
65039;SDS011;51606;45.000;38.612;2023-04-10T14:40:40;10.77;;;1.45;;
65039;SDS011;51606;45.000;38.612;2023-04-10T14:43:07;2.00;;;1.25;;
65039;SDS011;51606;45.000;38.612;2023-04-10T14:45:33;3.08;;;1.02;;
65039;SDS011;51606;45.000;38.612;2023-04-10T14:47:59;3.95;;;1.80;;
65039;SDS011;51606;45.000;38.612;2023-04-10T14:50:27;2.85;;;1.80;;
65039;SDS011;51606;45.000;38.612;2023-04-10T14:52:56;1.88;;;1.40;;
65039;SDS011;51606;45.000;38.612;2023-04-10T14:55:25;1.83;;;1.40;;
65039;SDS011;51606;45.000;38.612;2023-04-10T14:57:53;1.40;;;1.30;;
65039;SDS011;51606;45.000;38.612;2023-04-10T15:00:20;1.33;;;1.23;;
65039;SDS011;51606;45.000;38.612;2023-04-10T15:02:46;9.63;;;1.50;;
65039;SDS011;51606;45.000;38.612;2023-04-10T15:05:12;7.97;;;1.67;;
65039;SDS011;51606;45.000;38.612;2023-04-10T15:07:39;5.20;;;1.67;;
65039;SDS011;51606;45.000;38.612;2023-04-10T15:10:06;6.55;;;1.90;;
65039;SDS011;51606;45.000;38.612;2023-04-10T15:12:35;4.55;;;1.58;;
65039;SDS011;51606;45.000;38.612;2023-04-10T15:15:01;1.33;;;1.20;;
65039;SDS011;51606;45.000;38.612;2023-04-10T15:17:28;7.13;;;1.48;;
65039;SDS011;51606;45.000;38.612;2023-04-10T15:19:54;2.33;;;1.67;;
65039;SDS011;51606;45.000;38.612;2023-04-10T15:22:21;2.60;;;1.70;;
65039;SDS011;51606;45.000;38.612;2023-04-10T15:24:47;4.50;;;1.75;;
65039;SDS011;51606;45.000;38.612;2023-04-10T15:27:13;2.30;;;1.73;;
65039;SDS011;51606;45.000;38.612;2023-04-10T15:29:41;6.43;;;1.85;;
65039;SDS011;51606;45.000;38.612;2023-04-10T15:32:08;16.15;;;2.00;;
65039;SDS011;51606;45.000;38.612;2023-04-10T15:34:34;8.38;;;1.38;;
65039;SDS011;51606;45.000;38.612;2023-04-10T15:37:01;4.57;;;2.00;;
65039;SDS011;51606;45.000;38.612;2023-04-10T15:39:27;2.03;;;1.55;;
65039;SDS011;51606;45.000;38.612;2023-04-10T15:41:55;2.55;;;1.60;;
65039;SDS011;51606;45.000;38.612;2023-04-10T15:44:23;12.57;;;1.70;;
65039;SDS011;51606;45.000;38.612;2023-04-10T15:46:49;4.13;;;1.67;;
65039;SDS011;51606;45.000;38.612;2023-04-10T15:49:16;1.88;;;1.27;;
65039;SDS011;51606;45.000;38.612;2023-04-10T15:51:42;15.57;;;1.80;;
65039;SDS011;51606;45.000;38.612;2023-04-10T15:54:08;1.58;;;1.40;;
65039;SDS011;51606;45.000;38.612;2023-04-10T15:56:35;1.67;;;1.55;;
65039;SDS011;51606;45.000;38.612;2023-04-10T15:59:02;2.55;;;1.60;;
65039;SDS011;51606;45.000;38.612;2023-04-10T16:01:28;1.80;;;1.48;;
65039;SDS011;51606;45.000;38.612;2023-04-10T16:03:55;1.73;;;1.60;;
65039;SDS011;51606;45.000;38.612;2023-04-10T16:06:21;2.20;;;1.63;;
65039;SDS011;51606;45.000;38.612;2023-04-10T16:08:50;2.80;;;1.60;;
65039;SDS011;51606;45.000;38.612;2023-04-10T16:11:17;4.47;;;2.13;;
65039;SDS011;51606;45.000;38.612;2023-04-10T16:13:44;2.50;;;1.48;;
65039;SDS011;51606;45.000;38.612;2023-04-10T16:16:14;1.70;;;1.40;;
65039;SDS011;51606;45.000;38.612;2023-04-10T16:18:41;1.70;;;1.10;;
65039;SDS011;51606;45.000;38.612;2023-04-10T16:21:12;2.10;;;1.88;;
65039;SDS011;51606;45.000;38.612;2023-04-10T16:23:41;4.90;;;2.10;;
65039;SDS011;51606;45.000;38.612;2023-04-10T16:26:07;1.38;;;1.27;;
65039;SDS011;51606;45.000;38.612;2023-04-10T16:28:34;2.90;;;1.88;;
65039;SDS011;51606;45.000;38.612;2023-04-10T16:31:00;3.15;;;1.38;;
65039;SDS011;51606;45.000;38.612;2023-04-10T16:33:27;5.65;;;1.63;;
65039;SDS011;51606;45.000;38.612;2023-04-10T16:35:54;24.80;;;1.30;;
65039;SDS011;51606;45.000;38.612;2023-04-10T16:38:24;2.35;;;1.67;;
65039;SDS011;51606;45.000;38.612;2023-04-10T16:40:50;2.00;;;1.33;;
65039;SDS011;51606;45.000;38.612;2023-04-10T16:43:17;3.28;;;1.73;;
65039;SDS011;51606;45.000;38.612;2023-04-10T16:45:43;5.30;;;2.40;;
65039;SDS011;51606;45.000;38.612;2023-04-10T16:48:10;3.22;;;1.30;;
65039;SDS011;51606;45.000;38.612;2023-04-10T16:50:36;4.40;;;1.83;;
65039;SDS011;51606;45.000;38.612;2023-04-10T16:53:02;2.17;;;1.13;;
65039;SDS011;51606;45.000;38.612;2023-04-10T16:55:28;1.83;;;1.60;;
65039;SDS011;51606;45.000;38.612;2023-04-10T16:57:55;2.25;;;1.20;;
65039;SDS011;51606;45.000;38.612;2023-04-10T17:00:21;2.25;;;1.50;;
65039;SDS011;51606;45.000;38.612;2023-04-10T17:02:48;2.83;;;1.73;;
65039;SDS011;51606;45.000;38.612;2023-04-10T17:05:14;1.60;;;1.27;;
65039;SDS011;51606;45.000;38.612;2023-04-10T17:07:40;3.15;;;2.05;;
65039;SDS011;51606;45.000;38.612;2023-04-10T17:10:07;1.30;;;1.20;;
65039;SDS011;51606;45.000;38.612;2023-04-10T17:12:33;1.73;;;1.35;;
65039;SDS011;51606;45.000;38.612;2023-04-10T17:15:00;1.55;;;1.33;;
65039;SDS011;51606;45.000;38.612;2023-04-10T17:17:26;3.50;;;1.48;;
65039;SDS011;51606;45.000;38.612;2023-04-10T17:19:53;1.70;;;1.10;;
65039;SDS011;51606;45.000;38.612;2023-04-10T17:22:19;2.67;;;1.60;;
65039;SDS011;51606;45.000;38.612;2023-04-10T17:24:47;11.65;;;1.75;;
65039;SDS011;51606;45.000;38.612;2023-04-10T17:27:14;3.13;;;1.70;;
65039;SDS011;51606;45.000;38.612;2023-04-10T17:29:40;2.25;;;1.40;;
65039;SDS011;51606;45.000;38.612;2023-04-10T17:32:07;2.30;;;1.42;;
65039;SDS011;51606;45.000;38.612;2023-04-10T17:34:33;9.45;;;1.55;;
